sensor_id;sensor_type;location;lat;lon;timestamp;temperature;humidity
46139;DHT22;32398;49.112;8.598;2023-05-10T00:01:05;16.80;93.80
46139;DHT22;32398;49.112;8.598;2023-05-10T00:03:34;16.80;93.80
46139;DHT22;32398;49.112;8.598;2023-05-10T00:06:00;16.80;93.90
46139;DHT22;32398;49.112;8.598;2023-05-10T00:08:27;16.80;94.00
46139;DHT22;32398;49.112;8.598;2023-05-10T00:10:53;16.70;93.90
46139;DHT22;32398;49.112;8.598;2023-05-10T00:13:20;16.70;93.90
46139;DHT22;32398;49.112;8.598;2023-05-10T00:15:47;16.70;93.90
46139;DHT22;32398;49.112;8.598;2023-05-10T00:18:13;16.60;94.00
46139;DHT22;32398;49.112;8.598;2023-05-10T00:20:41;16.60;94.00
46139;DHT22;32398;49.112;8.598;2023-05-10T00:23:08;16.60;94.00
46139;DHT22;32398;49.112;8.598;2023-05-10T00:25:34;16.60;94.00
46139;DHT22;32398;49.112;8.598;2023-05-10T00:28:01;16.60;94.00
46139;DHT22;32398;49.112;8.598;2023-05-10T00:30:27;16.50;94.00
46139;DHT22;32398;49.112;8.598;2023-05-10T00:32:54;16.50;93.90
46139;DHT22;32398;49.112;8.598;2023-05-10T00:35:20;16.50;94.00
46139;DHT22;32398;49.112;8.598;2023-05-10T00:37:49;16.50;94.00
46139;DHT22;32398;49.112;8.598;2023-05-10T00:40:15;16.40;94.00
46139;DHT22;32398;49.112;8.598;2023-05-10T00:42:42;16.40;94.00
46139;DHT22;32398;49.112;8.598;2023-05-10T00:45:08;16.40;94.00
46139;DHT22;32398;49.112;8.598;2023-05-10T00:47:36;16.40;94.00
46139;DHT22;32398;49.112;8.598;2023-05-10T00:50:03;16.40;93.90
46139;DHT22;32398;49.112;8.598;2023-05-10T00:52:30;16.30;94.00
46139;DHT22;32398;49.112;8.598;2023-05-10T00:54:58;16.30;94.00
46139;DHT22;32398;49.112;8.598;2023-05-10T00:57:26;16.30;94.00
46139;DHT22;32398;49.112;8.598;2023-05-10T00:59:53;16.30;94.00
46139;DHT22;32398;49.112;8.598;2023-05-10T01:02:19;16.20;94.00
46139;DHT22;32398;49.112;8.598;2023-05-10T01:04:46;16.20;94.00
46139;DHT22;32398;49.112;8.598;2023-05-10T01:07:12;16.20;94.00
46139;DHT22;32398;49.112;8.598;2023-05-10T01:09:39;16.20;94.00
46139;DHT22;32398;49.112;8.598;2023-05-10T01:12:07;16.10;94.10
46139;DHT22;32398;49.112;8.598;2023-05-10T01:14:34;16.10;94.00
46139;DHT22;32398;49.112;8.598;2023-05-10T01:17:01;16.10;94.10
46139;DHT22;32398;49.112;8.598;2023-05-10T01:19:28;16.10;94.10
46139;DHT22;32398;49.112;8.598;2023-05-10T01:21:58;16.10;94.20
46139;DHT22;32398;49.112;8.598;2023-05-10T01:27:31;16.00;94.20
46139;DHT22;32398;49.112;8.598;2023-05-10T01:30:04;16.00;94.20
46139;DHT22;32398;49.112;8.598;2023-05-10T01:32:33;16.00;94.20
46139;DHT22;32398;49.112;8.598;2023-05-10T01:35:02;16.00;94.20
46139;DHT22;32398;49.112;8.598;2023-05-10T01:37:31;16.00;94.30
46139;DHT22;32398;49.112;8.598;2023-05-10T01:40:00;16.00;94.30
46139;DHT22;32398;49.112;8.598;2023-05-10T01:42:29;15.90;94.30
46139;DHT22;32398;49.112;8.598;2023-05-10T01:45:02;15.90;94.30
46139;DHT22;32398;49.112;8.598;2023-05-10T01:47:37;15.90;94.30
46139;DHT22;32398;49.112;8.598;2023-05-10T01:50:04;15.90;94.30
46139;DHT22;32398;49.112;8.598;2023-05-10T01:52:33;15.80;94.30
46139;DHT22;32398;49.112;8.598;2023-05-10T01:55:04;15.80;94.30
46139;DHT22;32398;49.112;8.598;2023-05-10T01:57:32;15.80;94.40
46139;DHT22;32398;49.112;8.598;2023-05-10T01:59:59;15.80;94.40
46139;DHT22;32398;49.112;8.598;2023-05-10T02:02:28;15.80;94.40
46139;DHT22;32398;49.112;8.598;2023-05-10T02:04:57;15.70;94.40
46139;DHT22;32398;49.112;8.598;2023-05-10T02:07:24;15.70;94.40
46139;DHT22;32398;49.112;8.598;2023-05-10T02:09:53;15.70;94.50
46139;DHT22;32398;49.112;8.598;2023-05-10T02:12:19;15.70;94.50
46139;DHT22;32398;49.112;8.598;2023-05-10T02:14:46;15.70;94.50
46139;DHT22;32398;49.112;8.598;2023-05-10T02:17:13;15.70;94.50
46139;DHT22;32398;49.112;8.598;2023-05-10T02:19:40;15.70;94.50
46139;DHT22;32398;49.112;8.598;2023-05-10T02:22:09;15.70;94.50
46139;DHT22;32398;49.112;8.598;2023-05-10T02:24:36;15.70;94.60
46139;DHT22;32398;49.112;8.598;2023-05-10T02:27:03;15.70;94.60
46139;DHT22;32398;49.112;8.598;2023-05-10T02:29:31;15.60;94.60
46139;DHT22;32398;49.112;8.598;2023-05-10T02:31:58;15.70;94.60
46139;DHT22;32398;49.112;8.598;2023-05-10T02:34:26;15.60;94.60
46139;DHT22;32398;49.112;8.598;2023-05-10T02:36:53;15.60;94.60
46139;DHT22;32398;49.112;8.598;2023-05-10T02:39:22;15.60;95.00
46139;DHT22;32398;49.112;8.598;2023-05-10T02:41:49;15.60;94.70
46139;DHT22;32398;49.112;8.598;2023-05-10T02:44:17;15.60;94.70
46139;DHT22;32398;49.112;8.598;2023-05-10T02:46:44;15.50;94.70
46139;DHT22;32398;49.112;8.598;2023-05-10T02:49:12;15.50;94.80
46139;DHT22;32398;49.112;8.598;2023-05-10T02:51:40;15.50;94.80
46139;DHT22;32398;49.112;8.598;2023-05-10T02:54:09;15.50;94.80
46139;DHT22;32398;49.112;8.598;2023-05-10T02:56:40;15.50;94.80
46139;DHT22;32398;49.112;8.598;2023-05-10T02:59:08;15.50;94.80
46139;DHT22;32398;49.112;8.598;2023-05-10T03:01:35;15.50;94.90
46139;DHT22;32398;49.112;8.598;2023-05-10T03:04:01;15.50;94.90
46139;DHT22;32398;49.112;8.598;2023-05-10T03:06:28;15.40;94.90
46139;DHT22;32398;49.112;8.598;2023-05-10T03:08:54;15.40;94.90
46139;DHT22;32398;49.112;8.598;2023-05-10T03:11:28;15.40;94.90
46139;DHT22;32398;49.112;8.598;2023-05-10T03:14:04;15.40;95.00
46139;DHT22;32398;49.112;8.598;2023-05-10T03:16:34;15.40;95.00
46139;DHT22;32398;49.112;8.598;2023-05-10T03:19:05;15.40;95.00
46139;DHT22;32398;49.112;8.598;2023-05-10T03:21:32;15.40;95.10
46139;DHT22;32398;49.112;8.598;2023-05-10T03:24:03;15.40;95.10
46139;DHT22;32398;49.112;8.598;2023-05-10T03:26:31;15.40;95.50
46139;DHT22;32398;49.112;8.598;2023-05-10T03:28:58;15.40;95.50
46139;DHT22;32398;49.112;8.598;2023-05-10T03:31:26;15.30;95.20
46139;DHT22;32398;49.112;8.598;2023-05-10T03:33:53;15.30;95.20
46139;DHT22;32398;49.112;8.598;2023-05-10T03:36:19;15.30;95.20
46139;DHT22;32398;49.112;8.598;2023-05-10T03:38:46;15.30;95.20
46139;DHT22;32398;49.112;8.598;2023-05-10T03:41:12;15.30;95.20
46139;DHT22;32398;49.112;8.598;2023-05-10T03:43:39;15.30;95.20
46139;DHT22;32398;49.112;8.598;2023-05-10T03:46:06;15.30;95.20
46139;DHT22;32398;49.112;8.598;2023-05-10T03:48:34;15.30;95.20
46139;DHT22;32398;49.112;8.598;2023-05-10T03:51:00;15.30;95.20
46139;DHT22;32398;49.112;8.598;2023-05-10T03:53:27;15.30;95.20
46139;DHT22;32398;49.112;8.598;2023-05-10T03:55:53;15.20;95.20
46139;DHT22;32398;49.112;8.598;2023-05-10T03:58:20;15.20;95.20
46139;DHT22;32398;49.112;8.598;2023-05-10T04:00:47;15.20;95.20
46139;DHT22;32398;49.112;8.598;2023-05-10T04:03:13;15.20;95.20
46139;DHT22;32398;49.112;8.598;2023-05-10T04:05:41;15.20;95.20
46139;DHT22;32398;49.112;8.598;2023-05-10T04:08:08;15.20;95.20
46139;DHT22;32398;49.112;8.598;2023-05-10T04:10:34;15.20;95.20
46139;DHT22;32398;49.112;8.598;2023-05-10T04:13:01;15.10;95.20
46139;DHT22;32398;49.112;8.598;2023-05-10T04:15:28;15.20;95.30
46139;DHT22;32398;49.112;8.598;2023-05-10T04:17:54;15.10;95.20
46139;DHT22;32398;49.112;8.598;2023-05-10T04:20:21;15.10;95.20
46139;DHT22;32398;49.112;8.598;2023-05-10T04:22:49;15.10;95.30
46139;DHT22;32398;49.112;8.598;2023-05-10T04:25:15;15.10;95.30
46139;DHT22;32398;49.112;8.598;2023-05-10T04:27:42;15.10;95.30
46139;DHT22;32398;49.112;8.598;2023-05-10T04:30:09;15.10;95.30
46139;DHT22;32398;49.112;8.598;2023-05-10T04:32:35;15.10;95.30
46139;DHT22;32398;49.112;8.598;2023-05-10T04:35:02;15.10;95.30
46139;DHT22;32398;49.112;8.598;2023-05-10T04:37:30;15.00;95.40
46139;DHT22;32398;49.112;8.598;2023-05-10T04:39:57;15.00;95.30
46139;DHT22;32398;49.112;8.598;2023-05-10T04:42:25;15.00;95.40
46139;DHT22;32398;49.112;8.598;2023-05-10T04:44:51;15.10;95.40
46139;DHT22;32398;49.112;8.598;2023-05-10T04:47:18;15.10;95.40
46139;DHT22;32398;49.112;8.598;2023-05-10T04:49:44;15.00;95.40
46139;DHT22;32398;49.112;8.598;2023-05-10T04:52:11;15.00;95.40
46139;DHT22;32398;49.112;8.598;2023-05-10T04:54:37;15.00;95.70
46139;DHT22;32398;49.112;8.598;2023-05-10T04:57:05;15.00;95.40
46139;DHT22;32398;49.112;8.598;2023-05-10T04:59:32;14.90;95.60
46139;DHT22;32398;49.112;8.598;2023-05-10T05:01:58;14.80;95.70
46139;DHT22;32398;49.112;8.598;2023-05-10T05:04:25;14.80;95.80
46139;DHT22;32398;49.112;8.598;2023-05-10T05:06:51;14.80;95.80
46139;DHT22;32398;49.112;8.598;2023-05-10T05:09:18;14.80;95.80
46139;DHT22;32398;49.112;8.598;2023-05-10T05:11:45;14.80;95.90
46139;DHT22;32398;49.112;8.598;2023-05-10T05:14:12;14.80;95.90
46139;DHT22;32398;49.112;8.598;2023-05-10T05:16:39;14.80;95.90
46139;DHT22;32398;49.112;8.598;2023-05-10T05:19:05;14.80;95.80
46139;DHT22;32398;49.112;8.598;2023-05-10T05:21:32;14.80;95.80
46139;DHT22;32398;49.112;8.598;2023-05-10T05:23:59;14.80;95.80
46139;DHT22;32398;49.112;8.598;2023-05-10T05:26:26;14.80;95.80
46139;DHT22;32398;49.112;8.598;2023-05-10T05:28:52;14.80;95.90
46139;DHT22;32398;49.112;8.598;2023-05-10T05:31:21;14.80;95.90
46139;DHT22;32398;49.112;8.598;2023-05-10T05:33:47;14.80;95.80
46139;DHT22;32398;49.112;8.598;2023-05-10T05:36:14;14.80;95.90
46139;DHT22;32398;49.112;8.598;2023-05-10T05:38:40;14.80;95.90
46139;DHT22;32398;49.112;8.598;2023-05-10T05:41:08;14.70;95.90
46139;DHT22;32398;49.112;8.598;2023-05-10T05:43:34;14.70;95.90
46139;DHT22;32398;49.112;8.598;2023-05-10T05:46:01;14.80;95.90
46139;DHT22;32398;49.112;8.598;2023-05-10T05:48:30;14.80;95.90
46139;DHT22;32398;49.112;8.598;2023-05-10T05:50:57;14.70;95.90
46139;DHT22;32398;49.112;8.598;2023-05-10T05:53:24;14.70;95.90
46139;DHT22;32398;49.112;8.598;2023-05-10T05:55:51;14.70;95.90
46139;DHT22;32398;49.112;8.598;2023-05-10T05:58:17;14.70;95.90
46139;DHT22;32398;49.112;8.598;2023-05-10T06:00:44;14.70;95.90
46139;DHT22;32398;49.112;8.598;2023-05-10T06:03:10;14.70;96.00
46139;DHT22;32398;49.112;8.598;2023-05-10T06:05:38;14.70;96.00
46139;DHT22;32398;49.112;8.598;2023-05-10T06:08:05;14.80;96.00
46139;DHT22;32398;49.112;8.598;2023-05-10T06:10:31;14.70;96.00
46139;DHT22;32398;49.112;8.598;2023-05-10T06:12:58;14.70;96.00
46139;DHT22;32398;49.112;8.598;2023-05-10T06:15:25;14.80;96.00
46139;DHT22;32398;49.112;8.598;2023-05-10T06:17:51;14.70;96.00
46139;DHT22;32398;49.112;8.598;2023-05-10T06:20:18;14.80;96.00
46139;DHT22;32398;49.112;8.598;2023-05-10T06:22:46;14.80;96.00
46139;DHT22;32398;49.112;8.598;2023-05-10T06:25:12;14.80;96.00
46139;DHT22;32398;49.112;8.598;2023-05-10T06:27:39;14.70;96.00
46139;DHT22;32398;49.112;8.598;2023-05-10T06:30:06;14.80;96.00
46139;DHT22;32398;49.112;8.598;2023-05-10T06:32:34;14.70;96.00
46139;DHT22;32398;49.112;8.598;2023-05-10T06:35:00;14.80;96.00
46139;DHT22;32398;49.112;8.598;2023-05-10T06:37:27;14.80;96.00
46139;DHT22;32398;49.112;8.598;2023-05-10T06:39:55;14.80;96.00
46139;DHT22;32398;49.112;8.598;2023-05-10T06:42:21;14.70;96.00
46139;DHT22;32398;49.112;8.598;2023-05-10T06:44:50;14.80;96.00
46139;DHT22;32398;49.112;8.598;2023-05-10T06:47:17;14.70;95.90
46139;DHT22;32398;49.112;8.598;2023-05-10T06:49:43;14.80;95.90
46139;DHT22;32398;49.112;8.598;2023-05-10T06:52:10;14.80;95.90
46139;DHT22;32398;49.112;8.598;2023-05-10T06:54:37;14.80;95.90
46139;DHT22;32398;49.112;8.598;2023-05-10T06:57:05;14.80;95.80
46139;DHT22;32398;49.112;8.598;2023-05-10T06:59:32;14.80;95.80
46139;DHT22;32398;49.112;8.598;2023-05-10T07:01:58;14.80;95.80
46139;DHT22;32398;49.112;8.598;2023-05-10T07:04:25;14.80;96.10
46139;DHT22;32398;49.112;8.598;2023-05-10T07:06:52;14.80;95.70
46139;DHT22;32398;49.112;8.598;2023-05-10T07:09:19;14.80;95.70
46139;DHT22;32398;49.112;8.598;2023-05-10T07:11:46;14.80;95.60
46139;DHT22;32398;49.112;8.598;2023-05-10T07:14:14;14.80;95.60
46139;DHT22;32398;49.112;8.598;2023-05-10T07:16:40;14.80;95.60
46139;DHT22;32398;49.112;8.598;2023-05-10T07:19:07;14.80;95.60
46139;DHT22;32398;49.112;8.598;2023-05-10T07:21:34;14.80;95.50
46139;DHT22;32398;49.112;8.598;2023-05-10T07:24:01;14.90;95.50
46139;DHT22;32398;49.112;8.598;2023-05-10T07:26:28;14.90;95.50
46139;DHT22;32398;49.112;8.598;2023-05-10T07:28:55;14.90;95.50
46139;DHT22;32398;49.112;8.598;2023-05-10T07:31:23;14.90;95.50
46139;DHT22;32398;49.112;8.598;2023-05-10T07:33:49;14.90;95.40
46139;DHT22;32398;49.112;8.598;2023-05-10T07:36:16;14.90;95.40
46139;DHT22;32398;49.112;8.598;2023-05-10T07:38:42;14.90;95.40
46139;DHT22;32398;49.112;8.598;2023-05-10T07:41:09;14.90;95.70
46139;DHT22;32398;49.112;8.598;2023-05-10T07:43:36;14.90;95.30
46139;DHT22;32398;49.112;8.598;2023-05-10T07:46:02;14.90;95.30
46139;DHT22;32398;49.112;8.598;2023-05-10T07:48:30;15.00;95.30
46139;DHT22;32398;49.112;8.598;2023-05-10T07:50:57;15.00;95.30
46139;DHT22;32398;49.112;8.598;2023-05-10T07:53:24;15.00;95.20
46139;DHT22;32398;49.112;8.598;2023-05-10T07:55:51;15.00;95.20
46139;DHT22;32398;49.112;8.598;2023-05-10T07:58:20;15.00;95.20
46139;DHT22;32398;49.112;8.598;2023-05-10T08:00:47;15.00;95.20
46139;DHT22;32398;49.112;8.598;2023-05-10T08:03:14;15.00;95.20
46139;DHT22;32398;49.112;8.598;2023-05-10T08:05:42;15.00;95.10
46139;DHT22;32398;49.112;8.598;2023-05-10T08:08:09;15.00;95.10
46139;DHT22;32398;49.112;8.598;2023-05-10T08:10:35;15.00;95.10
46139;DHT22;32398;49.112;8.598;2023-05-10T08:13:02;15.10;95.10
46139;DHT22;32398;49.112;8.598;2023-05-10T08:15:28;15.10;95.10
46139;DHT22;32398;49.112;8.598;2023-05-10T08:17:55;15.10;95.10
46139;DHT22;32398;49.112;8.598;2023-05-10T08:20:22;15.10;95.00
46139;DHT22;32398;49.112;8.598;2023-05-10T08:22:50;15.10;95.00
46139;DHT22;32398;49.112;8.598;2023-05-10T08:25:16;15.10;95.00
46139;DHT22;32398;49.112;8.598;2023-05-10T08:27:43;15.10;94.90
46139;DHT22;32398;49.112;8.598;2023-05-10T08:30:10;15.10;94.90
46139;DHT22;32398;49.112;8.598;2023-05-10T08:32:37;15.10;94.80
46139;DHT22;32398;49.112;8.598;2023-05-10T08:35:04;15.10;94.80
46139;DHT22;32398;49.112;8.598;2023-05-10T08:37:31;15.20;95.10
46139;DHT22;32398;49.112;8.598;2023-05-10T08:39:59;15.20;94.80
46139;DHT22;32398;49.112;8.598;2023-05-10T08:42:26;15.20;94.80
46139;DHT22;32398;49.112;8.598;2023-05-10T08:44:55;15.20;94.70
46139;DHT22;32398;49.112;8.598;2023-05-10T08:47:23;15.20;94.70
46139;DHT22;32398;49.112;8.598;2023-05-10T08:49:50;15.20;94.90
46139;DHT22;32398;49.112;8.598;2023-05-10T08:52:17;15.20;94.60
46139;DHT22;32398;49.112;8.598;2023-05-10T08:54:45;15.20;94.50
46139;DHT22;32398;49.112;8.598;2023-05-10T08:57:13;15.20;94.50
46139;DHT22;32398;49.112;8.598;2023-05-10T08:59:39;15.20;94.40
46139;DHT22;32398;49.112;8.598;2023-05-10T09:02:06;15.20;94.50
46139;DHT22;32398;49.112;8.598;2023-05-10T09:04:35;15.20;94.40
46139;DHT22;32398;49.112;8.598;2023-05-10T09:07:01;15.20;94.40
46139;DHT22;32398;49.112;8.598;2023-05-10T09:09:28;15.20;94.40
46139;DHT22;32398;49.112;8.598;2023-05-10T09:11:55;15.20;94.40
46139;DHT22;32398;49.112;8.598;2023-05-10T09:14:23;15.20;94.30
46139;DHT22;32398;49.112;8.598;2023-05-10T09:16:50;15.30;94.40
46139;DHT22;32398;49.112;8.598;2023-05-10T09:19:17;15.30;94.30
46139;DHT22;32398;49.112;8.598;2023-05-10T09:21:43;15.30;94.30
46139;DHT22;32398;49.112;8.598;2023-05-10T09:24:10;15.30;94.30
46139;DHT22;32398;49.112;8.598;2023-05-10T09:26:45;15.30;94.20
46139;DHT22;32398;49.112;8.598;2023-05-10T09:29:12;15.30;94.20
46139;DHT22;32398;49.112;8.598;2023-05-10T09:31:44;15.30;94.10
46139;DHT22;32398;49.112;8.598;2023-05-10T09:34:11;15.30;94.00
46139;DHT22;32398;49.112;8.598;2023-05-10T09:36:51;15.40;94.00
46139;DHT22;32398;49.112;8.598;2023-05-10T09:39:19;15.40;93.90
46139;DHT22;32398;49.112;8.598;2023-05-10T09:41:45;15.40;93.80
46139;DHT22;32398;49.112;8.598;2023-05-10T09:44:16;15.40;93.60
46139;DHT22;32398;49.112;8.598;2023-05-10T09:46:46;15.40;93.50
46139;DHT22;32398;49.112;8.598;2023-05-10T09:49:14;15.50;93.40
46139;DHT22;32398;49.112;8.598;2023-05-10T09:51:41;15.50;93.30
46139;DHT22;32398;49.112;8.598;2023-05-10T09:54:11;15.50;93.30
46139;DHT22;32398;49.112;8.598;2023-05-10T09:56:38;15.50;93.30
46139;DHT22;32398;49.112;8.598;2023-05-10T09:59:06;15.60;93.20
46139;DHT22;32398;49.112;8.598;2023-05-10T10:01:33;15.60;93.20
46139;DHT22;32398;49.112;8.598;2023-05-10T10:04:02;15.60;93.10
46139;DHT22;32398;49.112;8.598;2023-05-10T10:06:29;15.60;93.00
46139;DHT22;32398;49.112;8.598;2023-05-10T10:08:56;15.60;93.00
46139;DHT22;32398;49.112;8.598;2023-05-10T10:11:22;15.60;93.00
46139;DHT22;32398;49.112;8.598;2023-05-10T10:13:49;15.60;93.10
46139;DHT22;32398;49.112;8.598;2023-05-10T10:16:16;15.60;93.20
46139;DHT22;32398;49.112;8.598;2023-05-10T10:18:43;15.60;93.40
46139;DHT22;32398;49.112;8.598;2023-05-10T10:21:12;15.60;93.50
46139;DHT22;32398;49.112;8.598;2023-05-10T10:23:39;15.60;93.60
46139;DHT22;32398;49.112;8.598;2023-05-10T10:26:06;15.60;93.70
46139;DHT22;32398;49.112;8.598;2023-05-10T10:28:35;15.60;93.80
46139;DHT22;32398;49.112;8.598;2023-05-10T10:31:11;15.50;93.80
46139;DHT22;32398;49.112;8.598;2023-05-10T10:33:40;15.60;93.80
46139;DHT22;32398;49.112;8.598;2023-05-10T10:36:14;15.60;93.90
46139;DHT22;32398;49.112;8.598;2023-05-10T10:38:54;15.60;93.90
46139;DHT22;32398;49.112;8.598;2023-05-10T10:41:28;15.60;94.00
46139;DHT22;32398;49.112;8.598;2023-05-10T10:49:22;15.60;94.30
46139;DHT22;32398;49.112;8.598;2023-05-10T10:54:32;15.70;94.50
46139;DHT22;32398;49.112;8.598;2023-05-10T10:57:10;15.70;94.50
46139;DHT22;32398;49.112;8.598;2023-05-10T10:59:41;15.70;94.50
46139;DHT22;32398;49.112;8.598;2023-05-10T11:02:07;15.70;94.40
46139;DHT22;32398;49.112;8.598;2023-05-10T11:04:41;15.80;94.40
46139;DHT22;32398;49.112;8.598;2023-05-10T11:07:18;15.80;94.30
46139;DHT22;32398;49.112;8.598;2023-05-10T11:09:47;15.80;94.20
46139;DHT22;32398;49.112;8.598;2023-05-10T11:12:13;15.80;94.00
46139;DHT22;32398;49.112;8.598;2023-05-10T11:14:40;15.80;93.90
46139;DHT22;32398;49.112;8.598;2023-05-10T11:17:22;15.80;93.90
46139;DHT22;32398;49.112;8.598;2023-05-10T11:20:02;15.80;93.80
46139;DHT22;32398;49.112;8.598;2023-05-10T11:22:29;15.80;93.80
46139;DHT22;32398;49.112;8.598;2023-05-10T11:25:16;15.70;93.80
46139;DHT22;32398;49.112;8.598;2023-05-10T11:27:43;15.80;93.80
46139;DHT22;32398;49.112;8.598;2023-05-10T11:30:10;15.70;93.60
46139;DHT22;32398;49.112;8.598;2023-05-10T11:32:37;15.70;93.50
46139;DHT22;32398;49.112;8.598;2023-05-10T11:35:06;15.70;93.40
46139;DHT22;32398;49.112;8.598;2023-05-10T11:37:33;15.70;93.20
46139;DHT22;32398;49.112;8.598;2023-05-10T11:40:00;15.70;93.20
46139;DHT22;32398;49.112;8.598;2023-05-10T11:42:28;15.70;93.30
46139;DHT22;32398;49.112;8.598;2023-05-10T11:44:55;15.70;93.30
46139;DHT22;32398;49.112;8.598;2023-05-10T11:47:22;15.70;93.40
46139;DHT22;32398;49.112;8.598;2023-05-10T11:49:48;15.80;93.50
46139;DHT22;32398;49.112;8.598;2023-05-10T11:52:15;15.80;93.50
46139;DHT22;32398;49.112;8.598;2023-05-10T11:54:45;15.80;93.40
46139;DHT22;32398;49.112;8.598;2023-05-10T11:57:12;15.80;93.20
46139;DHT22;32398;49.112;8.598;2023-05-10T11:59:40;15.80;93.10
46139;DHT22;32398;49.112;8.598;2023-05-10T12:02:07;15.80;93.00
46139;DHT22;32398;49.112;8.598;2023-05-10T12:04:33;15.80;93.00
46139;DHT22;32398;49.112;8.598;2023-05-10T12:07:00;15.80;92.90
46139;DHT22;32398;49.112;8.598;2023-05-10T12:09:27;15.90;93.00
46139;DHT22;32398;49.112;8.598;2023-05-10T12:11:55;15.90;92.90
46139;DHT22;32398;49.112;8.598;2023-05-10T12:14:21;15.90;92.90
46139;DHT22;32398;49.112;8.598;2023-05-10T12:16:50;16.00;92.90
46139;DHT22;32398;49.112;8.598;2023-05-10T12:19:18;16.00;92.80
46139;DHT22;32398;49.112;8.598;2023-05-10T12:21:45;16.00;92.50
46139;DHT22;32398;49.112;8.598;2023-05-10T12:24:11;16.10;92.20
46139;DHT22;32398;49.112;8.598;2023-05-10T12:26:39;16.10;91.80
46139;DHT22;32398;49.112;8.598;2023-05-10T12:29:13;16.10;91.40
46139;DHT22;32398;49.112;8.598;2023-05-10T12:34:31;16.10;91.00
46139;DHT22;32398;49.112;8.598;2023-05-10T12:36:58;16.20;90.90
46139;DHT22;32398;49.112;8.598;2023-05-10T12:39:25;16.20;91.10
46139;DHT22;32398;49.112;8.598;2023-05-10T12:41:52;16.20;90.50
46139;DHT22;32398;49.112;8.598;2023-05-10T12:44:18;16.20;90.10
46139;DHT22;32398;49.112;8.598;2023-05-10T12:46:45;16.20;89.90
46139;DHT22;32398;49.112;8.598;2023-05-10T12:49:11;16.20;89.90
46139;DHT22;32398;49.112;8.598;2023-05-10T12:51:39;16.20;89.40
46139;DHT22;32398;49.112;8.598;2023-05-10T12:54:06;16.20;89.30
46139;DHT22;32398;49.112;8.598;2023-05-10T12:56:32;16.30;89.60
46139;DHT22;32398;49.112;8.598;2023-05-10T12:58:59;16.30;89.60
46139;DHT22;32398;49.112;8.598;2023-05-10T13:01:26;16.30;89.60
46139;DHT22;32398;49.112;8.598;2023-05-10T13:03:52;16.30;89.30
46139;DHT22;32398;49.112;8.598;2023-05-10T13:06:19;16.30;89.20
46139;DHT22;32398;49.112;8.598;2023-05-10T13:08:47;16.40;88.80
46139;DHT22;32398;49.112;8.598;2023-05-10T13:11:14;16.40;88.80
46139;DHT22;32398;49.112;8.598;2023-05-10T13:13:41;16.40;88.00
46139;DHT22;32398;49.112;8.598;2023-05-10T13:16:08;16.40;87.70
46139;DHT22;32398;49.112;8.598;2023-05-10T13:18:35;16.50;87.80
46139;DHT22;32398;49.112;8.598;2023-05-10T13:21:01;16.50;88.00
46139;DHT22;32398;49.112;8.598;2023-05-10T13:23:29;16.60;88.00
46139;DHT22;32398;49.112;8.598;2023-05-10T13:25:57;16.60;87.70
46139;DHT22;32398;49.112;8.598;2023-05-10T13:28:23;16.60;87.80
46139;DHT22;32398;49.112;8.598;2023-05-10T13:30:51;16.70;87.80
46139;DHT22;32398;49.112;8.598;2023-05-10T13:33:18;16.70;87.50
46139;DHT22;32398;49.112;8.598;2023-05-10T13:35:44;16.70;87.40
46139;DHT22;32398;49.112;8.598;2023-05-10T13:38:11;16.80;87.40
46139;DHT22;32398;49.112;8.598;2023-05-10T13:40:38;16.80;86.90
46139;DHT22;32398;49.112;8.598;2023-05-10T13:43:05;16.90;86.70
46139;DHT22;32398;49.112;8.598;2023-05-10T13:45:32;16.90;86.30
46139;DHT22;32398;49.112;8.598;2023-05-10T13:47:59;16.90;87.00
46139;DHT22;32398;49.112;8.598;2023-05-10T13:50:25;17.00;86.60
46139;DHT22;32398;49.112;8.598;2023-05-10T13:52:52;17.00;85.80
46139;DHT22;32398;49.112;8.598;2023-05-10T13:55:19;17.10;85.40
46139;DHT22;32398;49.112;8.598;2023-05-10T13:57:45;17.10;85.50
46139;DHT22;32398;49.112;8.598;2023-05-10T14:00:14;17.10;85.60
46139;DHT22;32398;49.112;8.598;2023-05-10T14:02:41;17.20;84.70
46139;DHT22;32398;49.112;8.598;2023-05-10T14:05:08;17.20;84.30
46139;DHT22;32398;49.112;8.598;2023-05-10T14:07:35;17.20;85.00
46139;DHT22;32398;49.112;8.598;2023-05-10T14:10:01;17.30;84.00
46139;DHT22;32398;49.112;8.598;2023-05-10T14:12:28;17.30;83.70
46139;DHT22;32398;49.112;8.598;2023-05-10T14:14:54;17.30;83.80
46139;DHT22;32398;49.112;8.598;2023-05-10T14:17:23;17.30;83.40
46139;DHT22;32398;49.112;8.598;2023-05-10T14:19:49;17.30;83.40
46139;DHT22;32398;49.112;8.598;2023-05-10T14:22:16;17.40;83.90
46139;DHT22;32398;49.112;8.598;2023-05-10T14:24:43;17.40;82.50
46139;DHT22;32398;49.112;8.598;2023-05-10T14:27:12;17.40;82.70
46139;DHT22;32398;49.112;8.598;2023-05-10T14:29:38;17.40;82.10
46139;DHT22;32398;49.112;8.598;2023-05-10T14:32:05;17.50;81.80
46139;DHT22;32398;49.112;8.598;2023-05-10T14:34:33;17.50;81.20
46139;DHT22;32398;49.112;8.598;2023-05-10T14:36:59;17.50;81.70
46139;DHT22;32398;49.112;8.598;2023-05-10T14:39:26;17.60;81.40
46139;DHT22;32398;49.112;8.598;2023-05-10T14:41:54;17.60;81.10
46139;DHT22;32398;49.112;8.598;2023-05-10T14:44:21;17.60;81.60
46139;DHT22;32398;49.112;8.598;2023-05-10T14:46:48;17.60;80.60
46139;DHT22;32398;49.112;8.598;2023-05-10T14:49:15;17.60;80.50
46139;DHT22;32398;49.112;8.598;2023-05-10T14:51:43;17.60;80.90
46139;DHT22;32398;49.112;8.598;2023-05-10T14:54:10;17.70;81.10
46139;DHT22;32398;49.112;8.598;2023-05-10T14:56:36;17.70;80.90
46139;DHT22;32398;49.112;8.598;2023-05-10T14:59:03;17.70;80.30
46139;DHT22;32398;49.112;8.598;2023-05-10T15:01:30;17.80;78.50
46139;DHT22;32398;49.112;8.598;2023-05-10T15:03:58;18.10;71.60
46139;DHT22;32398;49.112;8.598;2023-05-10T15:06:30;18.30;71.30
46139;DHT22;32398;49.112;8.598;2023-05-10T15:08:58;18.40;71.20
46139;DHT22;32398;49.112;8.598;2023-05-10T15:11:25;18.60;72.30
46139;DHT22;32398;49.112;8.598;2023-05-10T15:13:51;18.70;72.70
46139;DHT22;32398;49.112;8.598;2023-05-10T15:16:18;18.80;73.30
46139;DHT22;32398;49.112;8.598;2023-05-10T15:18:45;18.80;72.20
46139;DHT22;32398;49.112;8.598;2023-05-10T15:21:11;19.00;72.00
46139;DHT22;32398;49.112;8.598;2023-05-10T15:23:38;19.00;72.20
46139;DHT22;32398;49.112;8.598;2023-05-10T15:26:06;19.10;72.30
46139;DHT22;32398;49.112;8.598;2023-05-10T15:28:34;19.20;72.50
46139;DHT22;32398;49.112;8.598;2023-05-10T15:31:01;19.20;72.40
46139;DHT22;32398;49.112;8.598;2023-05-10T15:33:28;19.30;72.00
46139;DHT22;32398;49.112;8.598;2023-05-10T15:35:54;19.30;71.80
46139;DHT22;32398;49.112;8.598;2023-05-10T15:38:21;19.40;72.30
46139;DHT22;32398;49.112;8.598;2023-05-10T15:40:48;19.40;72.50
46139;DHT22;32398;49.112;8.598;2023-05-10T15:43:16;19.50;72.80
46139;DHT22;32398;49.112;8.598;2023-05-10T15:45:42;19.50;72.70